Time;durP1;ratioP1;P1;durP2;ratioP2;P2;SDS_P1;SDS_P2;PMS_P1;PMS_P2;Temp;Humidity;BMP_temperature;BMP_pressure;BME280_temperature;BME280_humidity;BME280_pressure;Samples;Min_cycle;Max_cycle;Signal;HPM_P1;HPM_P2
2023/10/29 00:00:11;;;;;;;26.08;15.60;;;;;;;;;;1037284;28;20445;-66
2023/10/29 00:00:43;;;;;;;25.95;16.17;;;;;;;;;;1036616;28;20171;-66
2023/10/29 00:01:33;;;;;;;22.55;14.73;;;;;;;;;;1034848;28;20054;-66
2023/10/29 00:02:04;;;;;;;25.25;14.80;;;;;;;;;;1035375;28;20049;-66
2023/10/29 00:02:34;;;;;;;26.23;15.75;;;;;;;;;;1037698;28;20148;-66
2023/10/29 00:03:06;;;;;;;26.95;16.00;;;;;;;;;;1037210;28;20539;-66
2023/10/29 00:03:37;;;;;;;25.63;15.82;;;;;;;;;;1036835;28;20056;-66
2023/10/29 00:04:07;;;;;;;24.60;15.85;;;;;;;;;;1037470;28;20057;-66
2023/10/29 00:04:38;;;;;;;26.48;16.73;;;;;;;;;;1037140;28;20060;-66
2023/10/29 00:05:08;;;;;;;30.02;15.73;;;;;;;;;;1036424;28;20115;-67
2023/10/29 00:05:40;;;;;;;30.17;17.08;;;;;;;;;;1036354;28;20077;-66
2023/10/29 00:06:11;;;;;;;28.42;16.95;;;;;;;;;;1037948;28;20108;-66
2023/10/29 00:06:42;;;;;;;31.30;18.65;;;;;;;;;;1036671;28;20049;-66
2023/10/29 00:07:12;;;;;;;36.80;18.17;;;;;;;;;;1035386;28;20065;-66
2023/10/29 00:07:43;;;;;;;26.23;17.23;;;;;;;;;;1036672;28;20045;-66
2023/10/29 00:08:13;;;;;;;30.50;17.60;;;;;;;;;;1037614;28;20069;-66
2023/10/29 00:08:44;;;;;;;31.85;18.63;;;;;;;;;;1035492;28;20057;-66
2023/10/29 00:09:14;;;;;;;28.63;17.75;;;;;;;;;;1035052;28;20061;-65
2023/10/29 00:09:45;;;;;;;27.27;16.75;;;;;;;;;;1036767;28;20059;-66
2023/10/29 00:10:16;;;;;;;29.23;18.63;;;;;;;;;;1036605;28;20045;-66
2023/10/29 00:10:47;;;;;;;30.23;17.75;;;;;;;;;;1037189;28;20129;-66
2023/10/29 00:11:17;;;;;;;33.10;18.27;;;;;;;;;;1035277;28;20076;-66
2023/10/29 00:11:48;;;;;;;31.77;18.60;;;;;;;;;;1036667;28;20046;-66
2023/10/29 00:12:18;;;;;;;32.35;19.50;;;;;;;;;;1036461;28;20050;-66
2023/10/29 00:12:49;;;;;;;36.17;17.73;;;;;;;;;;1036851;28;20053;-66
2023/10/29 00:13:19;;;;;;;35.40;18.67;;;;;;;;;;1033889;28;20053;-66
2023/10/29 00:13:50;;;;;;;30.17;18.73;;;;;;;;;;1034589;28;20080;-66
2023/10/29 00:14:21;;;;;;;31.75;18.40;;;;;;;;;;1037205;28;20045;-66
2023/10/29 00:14:51;;;;;;;33.47;18.35;;;;;;;;;;1036491;28;20053;-66
2023/10/29 00:15:22;;;;;;;36.00;19.50;;;;;;;;;;1036876;28;20047;-66
2023/10/29 00:15:52;;;;;;;35.38;18.67;;;;;;;;;;1038328;28;20045;-66
2023/10/29 00:16:23;;;;;;;30.23;19.33;;;;;;;;;;1036475;28;20132;-66
2023/10/29 00:16:53;;;;;;;32.45;18.73;;;;;;;;;;1037751;28;20041;-66
2023/10/29 00:17:24;;;;;;;30.35;17.38;;;;;;;;;;1035867;28;20061;-66
2023/10/29 00:17:54;;;;;;;30.70;19.42;;;;;;;;;;1037010;28;20140;-66
2023/10/29 00:18:25;;;;;;;30.38;18.25;;;;;;;;;;1037446;28;20045;-66
2023/10/29 00:18:55;;;;;;;26.35;17.10;;;;;;;;;;1036311;28;20067;-66
2023/10/29 00:19:26;;;;;;;28.70;17.08;;;;;;;;;;1037497;28;20050;-66
2023/10/29 00:19:59;;;;;;;30.27;18.88;;;;;;;;;;1037867;28;20048;-66
2023/10/29 00:20:29;;;;;;;27.10;16.77;;;;;;;;;;1036958;28;20049;-66
2023/10/29 00:21:00;;;;;;;30.23;17.45;;;;;;;;;;1037244;28;20057;-66
2023/10/29 00:21:34;;;;;;;32.30;17.60;;;;;;;;;;1037729;28;20491;-66
2023/10/29 00:22:05;;;;;;;32.22;18.40;;;;;;;;;;1036933;28;20060;-66
2023/10/29 00:22:35;;;;;;;30.35;17.83;;;;;;;;;;1037707;28;20127;-66
2023/10/29 00:23:07;;;;;;;29.17;18.05;;;;;;;;;;1037901;28;20103;-66
2023/10/29 00:23:37;;;;;;;29.08;17.08;;;;;;;;;;1036742;28;20427;-66
2023/10/29 00:24:08;;;;;;;29.52;18.17;;;;;;;;;;1037029;28;20831;-66
2023/10/29 00:24:39;;;;;;;28.92;18.20;;;;;;;;;;1037102;28;20052;-66
2023/10/29 00:25:10;;;;;;;29.35;18.98;;;;;;;;;;1038954;28;20053;-66
2023/10/29 00:25:40;;;;;;;29.08;17.67;;;;;;;;;;1036007;28;20045;-66
2023/10/29 00:26:11;;;;;;;30.75;18.00;;;;;;;;;;1038781;28;20056;-66
2023/10/29 00:26:41;;;;;;;30.67;16.92;;;;;;;;;;1037183;28;21988;-66
2023/10/29 00:27:12;;;;;;;29.92;18.10;;;;;;;;;;1037633;28;20436;-66
2023/10/29 00:27:43;;;;;;;28.27;17.23;;;;;;;;;;1037366;28;20153;-66
2023/10/29 00:28:13;;;;;;;28.52;17.15;;;;;;;;;;1036227;28;20052;-66
2023/10/29 00:28:44;;;;;;;30.65;18.30;;;;;;;;;;1037827;28;20056;-66
2023/10/29 00:29:14;;;;;;;29.05;17.10;;;;;;;;;;1037636;28;20076;-66
2023/10/29 00:29:46;;;;;;;29.85;17.50;;;;;;;;;;1038357;28;20433;-66
2023/10/29 00:30:17;;;;;;;28.52;17.42;;;;;;;;;;1036079;28;20061;-66
2023/10/29 00:30:48;;;;;;;29.40;16.83;;;;;;;;;;1038293;28;20064;-66
2023/10/29 00:31:20;;;;;;;25.60;17.17;;;;;;;;;;1037232;28;20064;-66
2023/10/29 00:31:51;;;;;;;29.80;17.80;;;;;;;;;;1038285;28;20070;-66
2023/10/29 00:32:22;;;;;;;31.27;17.92;;;;;;;;;;1037014;28;20053;-66
2023/10/29 00:32:52;;;;;;;27.15;16.65;;;;;;;;;;1038638;28;20119;-67
2023/10/29 00:33:23;;;;;;;25.90;17.15;;;;;;;;;;1035787;28;20082;-66
2023/10/29 00:33:53;;;;;;;28.77;17.42;;;;;;;;;;1038509;28;20049;-66
2023/10/29 00:34:24;;;;;;;26.77;16.02;;;;;;;;;;1036653;28;20474;-66
2023/10/29 00:34:54;;;;;;;29.23;16.73;;;;;;;;;;1036652;28;20123;-66
2023/10/29 00:35:25;;;;;;;25.25;16.42;;;;;;;;;;1036636;28;20116;-66
2023/10/29 00:35:55;;;;;;;28.50;16.80;;;;;;;;;;1038099;28;20465;-66
2023/10/29 00:36:26;;;;;;;26.38;16.40;;;;;;;;;;1037714;28;20493;-67
2023/10/29 00:36:56;;;;;;;26.92;16.52;;;;;;;;;;1038350;28;20781;-66
2023/10/29 00:37:27;;;;;;;29.25;16.80;;;;;;;;;;1035697;28;20084;-66
2023/10/29 00:37:57;;;;;;;26.40;16.20;;;;;;;;;;1036908;28;20707;-67
2023/10/29 00:38:28;;;;;;;28.63;16.55;;;;;;;;;;1038036;28;20051;-66
2023/10/29 00:38:58;;;;;;;27.15;16.92;;;;;;;;;;1037029;28;20236;-66
2023/10/29 00:39:29;;;;;;;25.00;16.27;;;;;;;;;;1034945;28;20073;-66
2023/10/29 00:40:00;;;;;;;30.05;17.55;;;;;;;;;;1038127;28;20049;-66
2023/10/29 00:40:30;;;;;;;26.95;16.75;;;;;;;;;;1036134;28;20050;-66
2023/10/29 00:41:01;;;;;;;28.67;16.60;;;;;;;;;;1037626;28;20049;-66
2023/10/29 00:41:31;;;;;;;29.00;17.67;;;;;;;;;;1035934;28;20049;-66
2023/10/29 00:42:02;;;;;;;26.55;16.42;;;;;;;;;;1033822;28;20061;-66
2023/10/29 00:42:33;;;;;;;26.98;17.00;;;;;;;;;;1037451;28;20064;-66
2023/10/29 00:43:04;;;;;;;27.83;17.25;;;;;;;;;;1036489;28;20099;-66
2023/10/29 00:43:41;;;;;;;26.88;15.98;;;;;;;;;;1037998;28;20119;-67
2023/10/29 00:44:11;;;;;;;25.50;16.13;;;;;;;;;;1037004;28;20084;-66
2023/10/29 00:44:42;;;;;;;23.35;15.18;;;;;;;;;;1037366;28;20056;-66
2023/10/29 00:45:12;;;;;;;28.92;15.90;;;;;;;;;;1036844;28;20538;-66
2023/10/29 00:45:45;;;;;;;26.83;15.98;;;;;;;;;;1037306;28;20075;-66
2023/10/29 00:46:16;;;;;;;25.50;16.20;;;;;;;;;;1037436;28;20056;-66
2023/10/29 00:46:46;;;;;;;26.80;16.67;;;;;;;;;;1036317;28;20064;-66
2023/10/29 00:47:17;;;;;;;26.70;16.33;;;;;;;;;;1036888;28;20056;-66
2023/10/29 00:47:48;;;;;;;27.17;16.73;;;;;;;;;;1037909;28;20041;-66
2023/10/29 00:48:19;;;;;;;26.50;16.67;;;;;;;;;;1036803;28;20045;-66
2023/10/29 00:48:50;;;;;;;24.77;14.82;;;;;;;;;;1036232;28;20445;-67
2023/10/29 00:49:21;;;;;;;29.45;16.95;;;;;;;;;;1035022;28;20581;-66
2023/10/29 00:49:52;;;;;;;24.52;16.30;;;;;;;;;;1037454;28;20049;-66
2023/10/29 00:50:23;;;;;;;28.15;16.60;;;;;;;;;;1036989;28;20056;-66
2023/10/29 00:50:53;;;;;;;26.88;16.27;;;;;;;;;;1036670;28;20052;-66
2023/10/29 00:51:24;;;;;;;24.08;16.60;;;;;;;;;;1034648;28;20059;-66
2023/10/29 00:51:55;;;;;;;25.52;16.33;;;;;;;;;;1036051;28;20112;-66
2023/10/29 00:52:27;;;;;;;24.38;15.30;;;;;;;;;;1037129;28;20081;-66
2023/10/29 00:52:58;;;;;;;27.52;16.48;;;;;;;;;;1037785;28;20130;-66
2023/10/29 00:53:29;;;;;;;27.95;16.75;;;;;;;;;;1037622;28;20114;-66
2023/10/29 00:53:59;;;;;;;24.25;15.32;;;;;;;;;;1038224;28;20057;-66
2023/10/29 00:54:30;;;;;;;24.20;15.63;;;;;;;;;;1036557;28;20045;-66
2023/10/29 00:55:02;;;;;;;26.40;16.38;;;;;;;;;;1038113;28;20045;-66
2023/10/29 00:55:33;;;;;;;25.10;15.75;;;;;;;;;;1037450;28;20048;-66
2023/10/29 00:56:04;;;;;;;26.00;15.55;;;;;;;;;;1036631;28;20496;-66
2023/10/29 00:56:35;;;;;;;26.95;16.08;;;;;;;;;;1036281;28;20732;-66
2023/10/29 00:57:09;;;;;;;27.98;17.02;;;;;;;;;;1038312;28;20124;-66
2023/10/29 00:57:40;;;;;;;23.48;15.18;;;;;;;;;;1036963;28;20413;-66
2023/10/29 00:58:11;;;;;;;27.88;16.15;;;;;;;;;;1037651;28;20053;-66
2023/10/29 00:58:42;;;;;;;27.00;15.85;;;;;;;;;;1037548;28;20498;-66
2023/10/29 00:59:14;;;;;;;29.63;16.23;;;;;;;;;;1038290;28;20045;-66
2023/10/29 00:59:45;;;;;;;28.67;16.80;;;;;;;;;;1037506;28;20079;-66
2023/10/29 01:00:21;;;;;;;23.92;15.68;;;;;;;;;;1036606;28;20601;-66
2023/10/29 01:00:51;;;;;;;27.70;15.50;;;;;;;;;;1037612;28;20045;-66
2023/10/29 01:01:22;;;;;;;26.63;15.02;;;;;;;;;;1037667;28;20107;-66
2023/10/29 01:01:53;;;;;;;24.67;15.45;;;;;;;;;;1036345;28;20670;-66
2023/10/29 01:02:24;;;;;;;24.52;14.98;;;;;;;;;;1037333;28;20502;-66
2023/10/29 01:02:54;;;;;;;24.65;15.57;;;;;;;;;;1036928;28;20504;-66
2023/10/29 01:03:25;;;;;;;25.25;15.80;;;;;;;;;;1037248;28;20060;-66
2023/10/29 01:03:55;;;;;;;24.75;15.52;;;;;;;;;;1037194;28;20045;-66
2023/10/29 01:04:26;;;;;;;22.30;15.30;;;;;;;;;;1036638;28;20494;-66
2023/10/29 01:04:58;;;;;;;22.65;15.40;;;;;;;;;;1036269;28;20061;-65
2023/10/29 01:05:29;;;;;;;24.17;16.35;;;;;;;;;;1036968;28;20064;-66
2023/10/29 01:05:59;;;;;;;25.17;15.50;;;;;;;;;;1035397;28;20053;-66
2023/10/29 01:06:38;;;;;;;25.35;15.50;;;;;;;;;;1036327;28;20451;-66
2023/10/29 01:07:09;;;;;;;23.15;15.02;;;;;;;;;;1037977;28;20143;-66
2023/10/29 01:07:39;;;;;;;27.70;16.08;;;;;;;;;;1037211;28;20087;-67
2023/10/29 01:08:10;;;;;;;22.60;15.02;;;;;;;;;;1036294;28;20045;-66
2023/10/29 01:08:41;;;;;;;26.67;15.52;;;;;;;;;;1035795;28;20049;-66
2023/10/29 01:09:12;;;;;;;30.10;15.43;;;;;;;;;;1037200;28;20058;-66
2023/10/29 01:09:44;;;;;;;24.65;15.18;;;;;;;;;;1037141;28;20057;-66
2023/10/29 01:10:15;;;;;;;23.80;15.00;;;;;;;;;;1037668;28;20053;-66
2023/10/29 01:10:46;;;;;;;24.42;14.55;;;;;;;;;;1037820;28;20057;-66
2023/10/29 01:11:16;;;;;;;23.83;14.95;;;;;;;;;;1035738;28;20052;-66
2023/10/29 01:11:47;;;;;;;24.67;16.15;;;;;;;;;;1035781;28;22060;-66
2023/10/29 01:12:19;;;;;;;25.10;14.80;;;;;;;;;;1033665;28;20054;-65
2023/10/29 01:12:49;;;;;;;28.15;15.95;;;;;;;;;;1038150;28;20164;-66
2023/10/29 01:13:20;;;;;;;26.65;15.98;;;;;;;;;;1037368;28;20061;-66
2023/10/29 01:13:51;;;;;;;25.88;16.02;;;;;;;;;;1038049;28;20148;-67
2023/10/29 01:14:21;;;;;;;28.20;16.35;;;;;;;;;;1036919;28;20061;-66
2023/10/29 01:14:52;;;;;;;28.73;16.25;;;;;;;;;;1038007;28;20080;-66
2023/10/29 01:15:22;;;;;;;25.67;16.27;;;;;;;;;;1035284;28;20084;-66
2023/10/29 01:15:53;;;;;;;27.20;17.17;;;;;;;;;;1037402;28;20057;-67
2023/10/29 01:16:23;;;;;;;27.05;16.40;;;;;;;;;;1037527;28;20053;-66
2023/10/29 01:16:54;;;;;;;29.77;16.52;;;;;;;;;;1037512;28;20118;-66
2023/10/29 01:17:24;;;;;;;27.02;16.70;;;;;;;;;;1037341;28;20332;-66
2023/10/29 01:17:55;;;;;;;27.23;16.17;;;;;;;;;;1035709;28;20053;-66
2023/10/29 01:18:26;;;;;;;29.08;17.13;;;;;;;;;;1036764;28;20050;-66
2023/10/29 01:18:57;;;;;;;27.25;16.70;;;;;;;;;;1037512;28;20140;-66
2023/10/29 01:19:27;;;;;;;29.27;16.38;;;;;;;;;;1037168;28;20045;-66
2023/10/29 01:19:58;;;;;;;27.70;16.35;;;;;;;;;;1036662;28;20049;-66
2023/10/29 01:20:29;;;;;;;31.15;17.15;;;;;;;;;;1036447;28;20748;-66
2023/10/29 01:21:00;;;;;;;30.50;17.55;;;;;;;;;;1037524;28;20375;-66
2023/10/29 01:21:31;;;;;;;25.83;16.02;;;;;;;;;;1035567;28;20068;-66
2023/10/29 01:22:01;;;;;;;26.95;16.02;;;;;;;;;;1035940;28;20045;-66
2023/10/29 01:22:33;;;;;;;25.48;16.40;;;;;;;;;;1037001;28;20049;-66
2023/10/29 01:23:03;;;;;;;27.08;16.90;;;;;;;;;;1037446;28;20623;-66
2023/10/29 01:23:34;;;;;;;26.20;16.60;;;;;;;;;;1037097;28;20084;-66
2023/10/29 01:24:04;;;;;;;24.42;15.65;;;;;;;;;;1037992;28;20053;-66
2023/10/29 01:24:36;;;;;;;28.70;16.88;;;;;;;;;;1037312;28;20465;-67
2023/10/29 01:25:09;;;;;;;27.83;17.88;;;;;;;;;;1036789;28;20042;-66
2023/10/29 01:25:41;;;;;;;29.25;17.17;;;;;;;;;;1036231;28;20049;-66
2023/10/29 01:26:11;;;;;;;29.45;17.15;;;;;;;;;;1038139;28;20046;-66
2023/10/29 01:26:42;;;;;;;27.63;16.48;;;;;;;;;;1035647;28;20051;-66
2023/10/29 01:27:12;;;;;;;25.42;15.27;;;;;;;;;;1037495;28;20921;-66
2023/10/29 01:27:44;;;;;;;27.50;15.75;;;;;;;;;;1036789;28;20458;-66
2023/10/29 01:28:16;;;;;;;26.45;15.60;;;;;;;;;;1037540;28;20052;-66
2023/10/29 01:28:46;;;;;;;26.30;16.30;;;;;;;;;;1037971;28;20077;-65
2023/10/29 01:29:17;;;;;;;26.25;16.17;;;;;;;;;;1036790;28;20802;-66
2023/10/29 01:29:48;;;;;;;26.30;16.77;;;;;;;;;;1036152;28;20731;-67
2023/10/29 01:30:18;;;;;;;25.75;15.48;;;;;;;;;;1034808;28;20050;-66
2023/10/29 01:30:49;;;;;;;28.73;16.95;;;;;;;;;;1037928;28;20048;-66
2023/10/29 01:31:19;;;;;;;27.50;15.63;;;;;;;;;;1036001;28;20063;-66
2023/10/29 01:31:50;;;;;;;28.50;16.52;;;;;;;;;;1036350;28;20495;-66
2023/10/29 01:32:20;;;;;;;25.35;15.15;;;;;;;;;;1036857;28;20528;-66
2023/10/29 01:32:51;;;;;;;26.15;16.08;;;;;;;;;;1037010;28;20041;-67
2023/10/29 01:33:21;;;;;;;28.58;16.08;;;;;;;;;;1037050;28;20115;-66
2023/10/29 01:33:52;;;;;;;26.52;15.68;;;;;;;;;;1036069;28;20399;-66
2023/10/29 01:34:23;;;;;;;25.45;16.08;;;;;;;;;;1036605;28;20561;-66
2023/10/29 01:34:53;;;;;;;26.83;15.15;;;;;;;;;;1037860;28;20103;-66
2023/10/29 01:35:24;;;;;;;23.27;15.10;;;;;;;;;;1037742;28;20068;-66
2023/10/29 01:35:54;;;;;;;30.83;16.25;;;;;;;;;;1036881;28;20049;-66
2023/10/29 01:36:25;;;;;;;27.23;15.75;;;;;;;;;;1037722;28;20528;-66
2023/10/29 01:36:55;;;;;;;31.77;16.67;;;;;;;;;;1035549;28;20060;-66
2023/10/29 01:37:26;;;;;;;26.80;16.30;;;;;;;;;;1037947;28;20079;-66
2023/10/29 01:37:56;;;;;;;29.65;16.42;;;;;;;;;;1037380;28;20052;-67
2023/10/29 01:38:27;;;;;;;27.88;15.50;;;;;;;;;;1037828;28;20057;-66
2023/10/29 01:38:58;;;;;;;30.17;16.33;;;;;;;;;;1036517;28;20100;-67
2023/10/29 01:39:28;;;;;;;32.45;17.58;;;;;;;;;;1037324;28;20053;-66
2023/10/29 01:39:59;;;;;;;26.17;15.18;;;;;;;;;;1036653;28;20049;-66
2023/10/29 01:40:29;;;;;;;25.17;15.75;;;;;;;;;;1036486;28;20052;-66
2023/10/29 01:41:00;;;;;;;31.30;16.27;;;;;;;;;;1038407;28;20052;-66
2023/10/29 01:41:31;;;;;;;25.38;15.23;;;;;;;;;;1034747;28;20572;-66
2023/10/29 01:42:02;;;;;;;28.55;17.02;;;;;;;;;;1038212;28;20362;-66
2023/10/29 01:42:33;;;;;;;29.30;16.73;;;;;;;;;;1036270;28;21625;-66
2023/10/29 01:43:03;;;;;;;27.92;17.05;;;;;;;;;;1037679;28;20046;-66
2023/10/29 01:43:34;;;;;;;26.42;15.95;;;;;;;;;;1036577;28;20938;-66
2023/10/29 01:44:04;;;;;;;29.85;16.67;;;;;;;;;;1037841;28;20049;-66
2023/10/29 01:44:35;;;;;;;28.52;15.95;;;;;;;;;;1036481;28;20056;-66
2023/10/29 01:45:06;;;;;;;29.63;16.55;;;;;;;;;;1037828;28;20080;-66
2023/10/29 01:45:37;;;;;;;28.63;16.35;;;;;;;;;;1036648;28;20045;-66
2023/10/29 01:46:08;;;;;;;27.20;16.52;;;;;;;;;;1037329;28;20122;-66
2023/10/29 01:46:38;;;;;;;31.13;17.35;;;;;;;;;;1036905;28;20053;-66
2023/10/29 01:47:09;;;;;;;30.05;16.50;;;;;;;;;;1037098;28;20119;-66
2023/10/29 01:47:40;;;;;;;29.13;16.52;;;;;;;;;;1037252;28;20110;-66
2023/10/29 01:48:10;;;;;;;35.80;17.73;;;;;;;;;;1036521;28;20055;-66
2023/10/29 01:48:41;;;;;;;31.98;17.20;;;;;;;;;;1035804;28;20079;-66
2023/10/29 01:49:11;;;;;;;31.38;16.63;;;;;;;;;;1037453;28;20048;-66
2023/10/29 01:49:42;;;;;;;25.63;16.33;;;;;;;;;;1036194;28;20099;-66
2023/10/29 01:50:13;;;;;;;30.45;17.40;;;;;;;;;;1037197;28;20837;-66
2023/10/29 01:50:43;;;;;;;31.27;17.25;;;;;;;;;;1035119;28;20379;-66
2023/10/29 01:51:14;;;;;;;26.88;16.15;;;;;;;;;;1036415;28;20050;-66
2023/10/29 01:51:44;;;;;;;32.50;17.25;;;;;;;;;;1038157;28;20096;-66
2023/10/29 01:52:15;;;;;;;31.48;16.88;;;;;;;;;;1036558;28;20049;-66
2023/10/29 01:52:45;;;;;;;26.17;17.00;;;;;;;;;;1034852;28;20074;-66
2023/10/29 01:53:16;;;;;;;31.65;18.15;;;;;;;;;;1037850;28;20462;-66
2023/10/29 01:53:47;;;;;;;32.22;17.90;;;;;;;;;;1037703;28;20118;-66
2023/10/29 01:54:18;;;;;;;38.33;17.58;;;;;;;;;;1037893;28;20049;-66
2023/10/29 01:54:48;;;;;;;34.05;17.38;;;;;;;;;;1036556;28;20064;-66
2023/10/29 01:55:19;;;;;;;30.42;17.55;;;;;;;;;;1037095;28;20095;-66
2023/10/29 01:55:49;;;;;;;31.40;18.33;;;;;;;;;;1035893;28;20132;-66
2023/10/29 01:56:19;;;;;;;31.40;16.80;;;;;;;;;;1037546;28;20131;-66
2023/10/29 01:56:50;;;;;;;32.67;17.15;;;;;;;;;;1036683;28;20920;-66
2023/10/29 01:57:21;;;;;;;39.25;18.58;;;;;;;;;;1036748;28;20057;-66
2023/10/29 01:57:52;;;;;;;37.42;18.42;;;;;;;;;;1036450;28;20057;-66
2023/10/29 01:58:22;;;;;;;39.17;17.90;;;;;;;;;;1037241;28;20053;-66
2023/10/29 01:58:53;;;;;;;35.05;19.77;;;;;;;;;;1038176;28;20065;-66
2023/10/29 01:59:23;;;;;;;41.55;17.85;;;;;;;;;;1035803;28;20049;-66
2023/10/29 01:59:54;;;;;;;39.15;18.50;;;;;;;;;;1037488;28;20726;-66
2023/10/29 02:00:24;;;;;;;36.70;17.88;;;;;;;;;;1035412;28;20180;-66
2023/10/29 02:00:55;;;;;;;36.65;18.23;;;;;;;;;;1038197;28;20073;-66
2023/10/29 02:01:25;;;;;;;35.97;18.55;;;;;;;;;;1036488;28;20112;-66
2023/10/29 02:01:56;;;;;;;32.38;17.77;;;;;;;;;;1037657;28;20052;-66
2023/10/29 02:02:27;;;;;;;36.47;18.35;;;;;;;;;;1036160;28;20080;-66
2023/10/29 02:02:57;;;;;;;32.83;17.73;;;;;;;;;;1035983;28;20064;-66
2023/10/29 02:03:28;;;;;;;28.88;16.65;;;;;;;;;;1034397;28;20049;-66
2023/10/29 02:03:58;;;;;;;32.55;17.40;;;;;;;;;;1037136;28;20073;-66
2023/10/29 02:04:30;;;;;;;37.58;18.75;;;;;;;;;;1037818;28;20045;-66
2023/10/29 02:05:04;;;;;;;33.67;18.60;;;;;;;;;;1035340;28;20091;-66
2023/10/29 02:05:34;;;;;;;26.35;16.35;;;;;;;;;;1036171;28;20073;-66
2023/10/29 02:06:15;;;;;;;34.83;18.02;;;;;;;;;;1037557;28;20069;-66
2023/10/29 02:06:46;;;;;;;36.85;18.55;;;;;;;;;;1036895;28;20064;-66
2023/10/29 02:07:16;;;;;;;34.40;17.52;;;;;;;;;;1036973;28;20060;-66
2023/10/29 02:07:47;;;;;;;34.67;18.65;;;;;;;;;;1036732;28;20148;-66
2023/10/29 02:08:18;;;;;;;33.30;18.10;;;;;;;;;;1035932;28;20500;-66
2023/10/29 02:08:48;;;;;;;36.50;18.25;;;;;;;;;;1037582;28;20053;-66
2023/10/29 02:09:20;;;;;;;37.58;20.05;;;;;;;;;;1034349;28;20601;-66
2023/10/29 02:09:50;;;;;;;38.50;19.75;;;;;;;;;;1035069;28;23811;-66
2023/10/29 02:10:21;;;;;;;38.80;18.73;;;;;;;;;;1034632;28;20041;-66
2023/10/29 02:10:51;;;;;;;40.90;20.20;;;;;;;;;;1037865;28;20057;-67
2023/10/29 02:11:22;;;;;;;42.33;18.30;;;;;;;;;;1034190;28;20988;-66
2023/10/29 02:11:53;;;;;;;36.78;19.00;;;;;;;;;;1034262;28;20054;-66
2023/10/29 02:12:23;;;;;;;38.22;18.05;;;;;;;;;;1035972;28;20053;-66
2023/10/29 02:12:54;;;;;;;41.72;18.27;;;;;;;;;;1037061;28;20095;-66
2023/10/29 02:13:24;;;;;;;35.22;18.05;;;;;;;;;;1036937;28;20424;-66
2023/10/29 02:13:55;;;;;;;35.03;18.05;;;;;;;;;;1036567;28;20041;-66
2023/10/29 02:14:26;;;;;;;34.15;17.13;;;;;;;;;;1036444;28;20049;-66
2023/10/29 02:14:56;;;;;;;34.28;17.55;;;;;;;;;;1035827;28;20076;-66
2023/10/29 02:15:27;;;;;;;35.88;17.80;;;;;;;;;;1036877;28;20053;-66
2023/10/29 02:15:57;;;;;;;33.45;18.55;;;;;;;;;;1038044;28;20061;-65
2023/10/29 02:16:28;;;;;;;34.90;17.70;;;;;;;;;;1037376;28;20056;-67
2023/10/29 02:16:58;;;;;;;33.88;18.65;;;;;;;;;;1037502;28;20061;-65
2023/10/29 02:17:29;;;;;;;36.33;20.23;;;;;;;;;;1037864;28;20061;-66
2023/10/29 02:17:59;;;;;;;34.15;17.38;;;;;;;;;;1037307;28;20049;-66
2023/10/29 02:18:30;;;;;;;38.83;19.17;;;;;;;;;;1034436;28;20048;-66
2023/10/29 02:19:01;;;;;;;35.13;18.17;;;;;;;;;;1038403;28;20052;-66
2023/10/29 02:19:31;;;;;;;35.97;20.15;;;;;;;;;;1035834;28;20068;-66
2023/10/29 02:20:02;;;;;;;37.45;18.60;;;;;;;;;;1037410;28;20494;-66
2023/10/29 02:20:32;;;;;;;43.70;18.48;;;;;;;;;;1035960;28;20076;-66
2023/10/29 02:21:03;;;;;;;35.97;17.83;;;;;;;;;;1038113;28;20072;-66
2023/10/29 02:21:34;;;;;;;32.50;17.83;;;;;;;;;;1035971;28;20535;-66
2023/10/29 02:22:05;;;;;;;33.20;17.67;;;;;;;;;;1036430;28;20057;-65
2023/10/29 02:22:36;;;;;;;36.63;18.05;;;;;;;;;;1036701;28;20080;-66
2023/10/29 02:23:06;;;;;;;29.88;17.35;;;;;;;;;;1037688;28;20053;-66
2023/10/29 02:23:37;;;;;;;37.72;18.02;;;;;;;;;;1036720;28;20526;-66
2023/10/29 02:24:08;;;;;;;36.50;18.50;;;;;;;;;;1037160;28;21935;-66
2023/10/29 02:24:38;;;;;;;34.92;18.55;;;;;;;;;;1037417;28;20132;-66
2023/10/29 02:25:09;;;;;;;39.28;17.70;;;;;;;;;;1037547;28;20056;-66
2023/10/29 02:25:39;;;;;;;37.97;19.20;;;;;;;;;;1036434;28;20107;-66
2023/10/29 02:26:09;;;;;;;38.17;18.48;;;;;;;;;;1036336;28;20065;-66
2023/10/29 02:26:40;;;;;;;40.60;20.48;;;;;;;;;;1035848;28;20806;-65
2023/10/29 02:27:11;;;;;;;38.55;18.52;;;;;;;;;;1037730;28;20045;-66
2023/10/29 02:27:41;;;;;;;38.45;18.52;;;;;;;;;;1035696;28;20058;-66
2023/10/29 02:28:12;;;;;;;33.88;18.63;;;;;;;;;;1036988;28;20488;-67
2023/10/29 02:28:42;;;;;;;35.30;19.30;;;;;;;;;;1035398;28;20124;-66
2023/10/29 02:29:13;;;;;;;36.60;17.63;;;;;;;;;;1036533;28;20100;-66
2023/10/29 02:29:43;;;;;;;42.53;19.80;;;;;;;;;;1036338;28;20053;-66
2023/10/29 02:30:14;;;;;;;42.78;20.10;;;;;;;;;;1036649;28;20049;-66
2023/10/29 02:30:45;;;;;;;41.08;19.40;;;;;;;;;;1037855;28;20045;-66
2023/10/29 02:31:16;;;;;;;45.30;19.73;;;;;;;;;;1035335;28;20089;-66
2023/10/29 02:31:47;;;;;;;36.88;18.85;;;;;;;;;;1037535;28;20776;-66
2023/10/29 02:32:18;;;;;;;42.97;19.75;;;;;;;;;;1037503;28;20692;-66
2023/10/29 02:32:48;;;;;;;42.20;20.20;;;;;;;;;;1038039;28;20056;-66
2023/10/29 02:33:19;;;;;;;43.08;20.25;;;;;;;;;;1035021;28;20822;-66
2023/10/29 02:33:49;;;;;;;49.35;21.25;;;;;;;;;;1037790;28;20056;-66
2023/10/29 02:34:20;;;;;;;43.88;20.60;;;;;;;;;;1038032;28;20089;-66
2023/10/29 02:34:50;;;;;;;46.45;19.50;;;;;;;;;;1037453;28;20766;-66
2023/10/29 02:35:21;;;;;;;45.33;19.80;;;;;;;;;;1036316;28;20053;-66
2023/10/29 02:35:51;;;;;;;43.78;20.38;;;;;;;;;;1037235;28;20128;-66
2023/10/29 02:36:22;;;;;;;46.47;20.60;;;;;;;;;;1037441;28;20053;-66
2023/10/29 02:36:52;;;;;;;46.28;20.67;;;;;;;;;;1037168;28;20053;-66
2023/10/29 02:37:23;;;;;;;40.88;20.25;;;;;;;;;;1035752;28;20387;-66
2023/10/29 02:37:53;;;;;;;43.42;20.25;;;;;;;;;;1037773;28;20662;-66
2023/10/29 02:38:24;;;;;;;42.60;20.77;;;;;;;;;;1036843;28;20065;-66
2023/10/29 02:38:54;;;;;;;43.78;20.00;;;;;;;;;;1036099;28;20840;-66
2023/10/29 02:39:25;;;;;;;40.97;20.60;;;;;;;;;;1035727;28;20127;-66
2023/10/29 02:39:56;;;;;;;40.75;18.25;;;;;;;;;;1036149;28;20052;-66
2023/10/29 02:40:26;;;;;;;40.65;19.15;;;;;;;;;;1037287;28;20045;-66
2023/10/29 02:40:57;;;;;;;42.05;19.15;;;;;;;;;;1037815;28;20486;-66
2023/10/29 02:41:27;;;;;;;45.85;19.65;;;;;;;;;;1035929;28;20565;-67
2023/10/29 02:41:58;;;;;;;45.08;20.60;;;;;;;;;;1038482;28;20050;-66
2023/10/29 02:42:28;;;;;;;40.35;20.48;;;;;;;;;;1037341;28;20463;-66
2023/10/29 02:42:59;;;;;;;39.45;19.45;;;;;;;;;;1035528;28;20553;-66
2023/10/29 02:43:30;;;;;;;43.40;21.08;;;;;;;;;;1036295;28;20668;-66
2023/10/29 02:44:00;;;;;;;39.90;20.20;;;;;;;;;;1038035;28;20484;-66
2023/10/29 02:44:31;;;;;;;45.08;21.02;;;;;;;;;;1036436;28;20049;-66
2023/10/29 02:45:01;;;;;;;42.55;20.75;;;;;;;;;;1037410;28;20079;-66
2023/10/29 02:45:32;;;;;;;41.67;21.27;;;;;;;;;;1036666;28;20052;-67
2023/10/29 02:46:03;;;;;;;43.08;19.98;;;;;;;;;;1038029;28;20049;-66
2023/10/29 02:46:37;;;;;;;41.13;19.38;;;;;;;;;;1036880;28;20061;-66
2023/10/29 02:47:07;;;;;;;43.78;20.38;;;;;;;;;;1035964;28;20045;-67
2023/10/29 02:47:38;;;;;;;39.72;19.08;;;;;;;;;;1037959;28;20049;-66
2023/10/29 02:48:08;;;;;;;35.95;20.20;;;;;;;;;;1036848;28;20056;-66
2023/10/29 02:48:39;;;;;;;38.70;19.40;;;;;;;;;;1035954;28;20046;-66
2023/10/29 02:49:09;;;;;;;36.25;20.80;;;;;;;;;;1038167;28;20046;-66
2023/10/29 02:49:40;;;;;;;49.05;20.02;;;;;;;;;;1036911;28;20485;-66
2023/10/29 02:50:10;;;;;;;47.25;21.27;;;;;;;;;;1035350;28;20057;-66
2023/10/29 02:50:41;;;;;;;44.75;19.42;;;;;;;;;;1037075;28;20425;-66
2023/10/29 02:51:12;;;;;;;55.67;20.33;;;;;;;;;;1036000;28;21489;-66
2023/10/29 02:51:42;;;;;;;37.50;18.42;;;;;;;;;;1036953;28;20046;-66
2023/10/29 02:52:13;;;;;;;45.53;19.88;;;;;;;;;;1036435;28;20060;-66
2023/10/29 02:52:43;;;;;;;35.78;18.77;;;;;;;;;;1036356;28;20057;-66
2023/10/29 02:53:14;;;;;;;41.80;20.33;;;;;;;;;;1036146;28;20505;-66
2023/10/29 02:53:44;;;;;;;38.00;19.60;;;;;;;;;;1036134;28;20049;-66
2023/10/29 02:54:15;;;;;;;40.22;18.50;;;;;;;;;;1037794;28;20053;-66
2023/10/29 02:54:45;;;;;;;48.00;21.00;;;;;;;;;;1037779;28;20223;-66
2023/10/29 02:55:16;;;;;;;48.30;20.42;;;;;;;;;;1037369;28;20049;-66
2023/10/29 02:55:47;;;;;;;46.75;21.30;;;;;;;;;;1037164;28;20119;-66
2023/10/29 02:56:17;;;;;;;46.13;20.45;;;;;;;;;;1037710;28;20073;-65
2023/10/29 02:56:48;;;;;;;42.88;18.88;;;;;;;;;;1036226;28;20112;-66
2023/10/29 02:57:18;;;;;;;39.13;19.60;;;;;;;;;;1037086;28;20664;-66
2023/10/29 02:57:49;;;;;;;40.83;19.80;;;;;;;;;;1036183;28;20414;-67
2023/10/29 02:58:19;;;;;;;37.38;19.77;;;;;;;;;;1037709;28;20771;-66
2023/10/29 02:58:50;;;;;;;37.17;20.20;;;;;;;;;;1038675;28;20069;-66
2023/10/29 02:59:20;;;;;;;40.85;21.00;;;;;;;;;;1037657;28;20128;-66